PAFR

Details ICAO PAFR (FRN)
Name BRYANT AHP
Region USA (Alaska)
Timezone America/Anchorage (UTC-9.0)
Plans Departing 2
Arriving 1
Stats Elevation 378 ft / 115 m (AMSL)
Location 61.266382° -149.653119°
Runways 1
Magnetic Variation 16.352° E
Sunrise 2017-12-14 19:09:26 UTC / 2017-12-14 10:09:26 Local
Sunset 2017-12-15 00:40:21 UTC / 2017-12-14 15:40:21 Local
Advertisement - Login to hide

Runways

ID Width Length Bearing (true) Bearing (mag) Surface Threshold Offset Overrun Length
16 100 ft / 30 m 4,167 ft / 1,270 m 186.99° 170.64° Asphalt 0 ft / 0 m 0 ft / 0 m
34 100 ft / 30 m 4,167 ft / 1,270 m 6.99° 350.64° Asphalt 0 ft / 0 m 0 ft / 0 m

Map

Weather


0- 5 10 15 20 25 30 35+ Temperature / ° C

Clouds and Precipitation
Forecast for 2017-12-14 12:00 UTC. Updated an hour ago

Ground ~20,000 ft ~40,000 ft Winds

METAR

PAFR 140958Z AUTO 06006KT 10SM CLR 01/M01 A2964

TAF

Not found

Frequencies

Unicom 125.00 MHz CTAF
Clearance 119.40 MHz ANCHORAGE CLNC DEL
Clearance 128.65 MHz ANCHORAGE CLNC DEL
Approach 118.60 MHz ANCHORAGE APP/DEP
Warning: Do not use this data for real-world aviation or navigation. No guarantee of current accuracy is given.